الصفحة الرئيسية
METAR-TAF:

METAR-TAF

مطار :

Ponce, بويرتو ريكو, الولايات المتحدة

دائرة عرض: 18-01N, خط طول: 066-34W, ارتفاع: 8 متر

مراقبة الطقس الحالي

تاريخ ووقت الإصدار 18 دقيقة قبل الساعة 05:55UTC
رياح هادئة
درجة الحرارة 25°درجة مئوية
الرطوبة 79%
ضغط 1015 hPa
الرؤية: 16.1 كم

METAR: TJPS 180555Z AUTO 00000KT 10SM 25/21 A2997 RMK AO2 PWINO

زمن: 02:13 (06:13 UTC)

توقعات

تاريخ ووقت الإصدار 18 دقيقة قبل الساعة 05:55UTC
التوقعات صالحة من18 الساعة 06 UTC إلى 19 الساعة 06 UTC
ريح 4 عقدة من الشرق
الرؤية: 10 كم
غيوم متفرقة على ارتفاع 2500 قدم
من 18 الساعة 0900 UTC
ريح عقدة من الشمال
الرؤية: 10 كم
غيوم قليلة على ارتفاع 2500 قدم
زخات في الجوار
من 18 الساعة 1400 UTC
ريح 14 عقدة من الجنوب الشرقي
الرؤية: 10 كم
غيوم قليلة على ارتفاع 3000 قدم
من 18 الساعة 2200 UTC
ريح 5 عقدة من الشرق
الرؤية: 10 كم
غيوم قليلة على ارتفاع 2500 قدم
غيوم متفرقة على ارتفاع 6000 قدم

TAF: TJPS 180555Z 1806/1906 08004KT P6SM SCT025 FM180900 00000KT P6SM VCSH FEW025 FM181400 14014KT P6SM FEW030 FM182200 09005KT P6SM FEW025 SCT060

أرصاد الطقس والتوقعات من أكثر من 4000 مطار (تقارير الطقس للمطار METAR والتنبؤ بالطقس بالمطارTAF).

المحطات المتاحة هي النقط الصفراء والحمراء على الخريطة.

حرك المؤشر فوق النقطة لمعرفة اسم المحطة.

ثم انقر لمعرفة أرصاد وتوقعات الطقس.

لتغيير الخارطة: اضغط على الأزرار الخضراء مع رمز الصليب الأسود للتكبير. على الزر الأخضر مع شرطة للتصغير، أو على الأسهم الخضراء للخرائط المجاورة.


METAR-TAF: